sensor_id;sensor_type;location;lat;lon;timestamp;temperature;humidity
68701;DHT22;55682;51.114;5.882;2023-10-31T00:01:51;12.23;86.68
68701;DHT22;55682;51.114;5.882;2023-10-31T00:04:17;12.19;86.77
68701;DHT22;55682;51.114;5.882;2023-10-31T00:06:43;12.17;87.05
68701;DHT22;55682;51.114;5.882;2023-10-31T00:09:08;12.19;86.77
68701;DHT22;55682;51.114;5.882;2023-10-31T00:11:36;12.18;86.64
68701;DHT22;55682;51.114;5.882;2023-10-31T00:14:02;12.25;86.70
68701;DHT22;55682;51.114;5.882;2023-10-31T00:16:27;12.20;86.74
68701;DHT22;55682;51.114;5.882;2023-10-31T00:18:53;12.23;86.53
68701;DHT22;55682;51.114;5.882;2023-10-31T00:21:19;12.27;86.64
68701;DHT22;55682;51.114;5.882;2023-10-31T00:23:48;12.28;86.60
68701;DHT22;55682;51.114;5.882;2023-10-31T00:26:15;12.32;86.45
68701;DHT22;55682;51.114;5.882;2023-10-31T00:28:48;12.28;86.57
68701;DHT22;55682;51.114;5.882;2023-10-31T00:31:13;12.29;86.63
68701;DHT22;55682;51.114;5.882;2023-10-31T00:33:40;12.31;86.00
68701;DHT22;55682;51.114;5.882;2023-10-31T00:36:06;12.26;86.35
68701;DHT22;55682;51.114;5.882;2023-10-31T00:38:33;12.21;86.48
68701;DHT22;55682;51.114;5.882;2023-10-31T00:40:58;12.22;86.47
68701;DHT22;55682;51.114;5.882;2023-10-31T00:43:24;12.25;86.43
68701;DHT22;55682;51.114;5.882;2023-10-31T00:45:50;12.28;86.35
68701;DHT22;55682;51.114;5.882;2023-10-31T00:48:15;12.21;86.66
68701;DHT22;55682;51.114;5.882;2023-10-31T00:50:41;12.17;86.91
68701;DHT22;55682;51.114;5.882;2023-10-31T00:53:07;12.26;86.98
68701;DHT22;55682;51.114;5.882;2023-10-31T00:55:33;12.26;86.55
68701;DHT22;55682;51.114;5.882;2023-10-31T00:57:59;12.16;86.80
68701;DHT22;55682;51.114;5.882;2023-10-31T01:00:25;12.21;86.87
68701;DHT22;55682;51.114;5.882;2023-10-31T01:02:50;12.07;87.09
68701;DHT22;55682;51.114;5.882;2023-10-31T01:05:16;12.12;87.20
68701;DHT22;55682;51.114;5.882;2023-10-31T01:07:42;12.12;87.83
68701;DHT22;55682;51.114;5.882;2023-10-31T01:10:08;12.08;87.63
68701;DHT22;55682;51.114;5.882;2023-10-31T01:12:33;12.05;88.02
68701;DHT22;55682;51.114;5.882;2023-10-31T01:15:00;12.14;87.84
68701;DHT22;55682;51.114;5.882;2023-10-31T01:17:26;12.19;87.73
68701;DHT22;55682;51.114;5.882;2023-10-31T01:19:52;12.18;87.64
68701;DHT22;55682;51.114;5.882;2023-10-31T01:22:18;12.13;88.06
68701;DHT22;55682;51.114;5.882;2023-10-31T01:24:43;12.23;87.78
68701;DHT22;55682;51.114;5.882;2023-10-31T01:27:09;12.19;87.98
68701;DHT22;55682;51.114;5.882;2023-10-31T01:29:35;12.22;87.97
68701;DHT22;55682;51.114;5.882;2023-10-31T01:32:00;12.27;87.83
68701;DHT22;55682;51.114;5.882;2023-10-31T01:34:27;12.36;87.05
68701;DHT22;55682;51.114;5.882;2023-10-31T01:36:53;12.26;87.51
68701;DHT22;55682;51.114;5.882;2023-10-31T01:39:18;12.38;86.91
68701;DHT22;55682;51.114;5.882;2023-10-31T01:41:44;12.26;87.54
68701;DHT22;55682;51.114;5.882;2023-10-31T01:44:10;12.30;87.48
68701;DHT22;55682;51.114;5.882;2023-10-31T01:46:36;12.28;87.62
68701;DHT22;55682;51.114;5.882;2023-10-31T01:49:02;12.28;87.96
68701;DHT22;55682;51.114;5.882;2023-10-31T01:51:29;12.23;88.07
68701;DHT22;55682;51.114;5.882;2023-10-31T01:53:55;12.19;87.99
68701;DHT22;55682;51.114;5.882;2023-10-31T01:56:22;12.20;88.19
68701;DHT22;55682;51.114;5.882;2023-10-31T01:58:49;12.17;88.65
68701;DHT22;55682;51.114;5.882;2023-10-31T02:01:16;12.22;88.37
68701;DHT22;55682;51.114;5.882;2023-10-31T02:03:42;12.29;88.14
68701;DHT22;55682;51.114;5.882;2023-10-31T02:06:08;12.30;87.88
68701;DHT22;55682;51.114;5.882;2023-10-31T02:08:34;12.27;87.83
68701;DHT22;55682;51.114;5.882;2023-10-31T02:10:59;12.28;87.75
68701;DHT22;55682;51.114;5.882;2023-10-31T02:13:25;12.28;87.72
68701;DHT22;55682;51.114;5.882;2023-10-31T02:15:51;12.27;87.70
68701;DHT22;55682;51.114;5.882;2023-10-31T02:18:17;12.30;87.34
68701;DHT22;55682;51.114;5.882;2023-10-31T02:20:43;12.35;87.37
68701;DHT22;55682;51.114;5.882;2023-10-31T02:23:09;12.37;87.30
68701;DHT22;55682;51.114;5.882;2023-10-31T02:25:35;12.40;87.11
68701;DHT22;55682;51.114;5.882;2023-10-31T02:28:00;12.37;87.07
68701;DHT22;55682;51.114;5.882;2023-10-31T02:30:27;12.41;86.64
68701;DHT22;55682;51.114;5.882;2023-10-31T02:32:53;12.40;86.72
68701;DHT22;55682;51.114;5.882;2023-10-31T02:35:19;12.40;86.59
68701;DHT22;55682;51.114;5.882;2023-10-31T02:37:46;12.37;86.88
68701;DHT22;55682;51.114;5.882;2023-10-31T02:40:13;12.41;86.64
68701;DHT22;55682;51.114;5.882;2023-10-31T02:42:39;12.45;86.34
68701;DHT22;55682;51.114;5.882;2023-10-31T02:45:06;12.42;86.33
68701;DHT22;55682;51.114;5.882;2023-10-31T02:47:31;12.36;86.70
68701;DHT22;55682;51.114;5.882;2023-10-31T02:49:57;12.37;86.36
68701;DHT22;55682;51.114;5.882;2023-10-31T02:52:23;12.35;86.81
68701;DHT22;55682;51.114;5.882;2023-10-31T02:54:48;12.33;86.51
68701;DHT22;55682;51.114;5.882;2023-10-31T02:57:15;12.37;86.29
68701;DHT22;55682;51.114;5.882;2023-10-31T02:59:41;12.30;86.72
68701;DHT22;55682;51.114;5.882;2023-10-31T03:02:07;12.36;86.39
68701;DHT22;55682;51.114;5.882;2023-10-31T03:04:33;12.34;86.45
68701;DHT22;55682;51.114;5.882;2023-10-31T03:06:58;12.37;86.12
68701;DHT22;55682;51.114;5.882;2023-10-31T03:09:24;12.28;86.80
68701;DHT22;55682;51.114;5.882;2023-10-31T03:11:50;12.32;86.59
68701;DHT22;55682;51.114;5.882;2023-10-31T03:14:16;12.31;86.40
68701;DHT22;55682;51.114;5.882;2023-10-31T03:16:41;12.28;86.77
68701;DHT22;55682;51.114;5.882;2023-10-31T03:19:07;12.32;86.80
68701;DHT22;55682;51.114;5.882;2023-10-31T03:21:33;12.32;86.93
68701;DHT22;55682;51.114;5.882;2023-10-31T03:24:00;12.32;86.76
68701;DHT22;55682;51.114;5.882;2023-10-31T03:26:25;12.42;86.56
68701;DHT22;55682;51.114;5.882;2023-10-31T03:28:51;12.40;86.67
68701;DHT22;55682;51.114;5.882;2023-10-31T03:31:23;12.43;86.36
68701;DHT22;55682;51.114;5.882;2023-10-31T03:33:49;12.38;86.38
68701;DHT22;55682;51.114;5.882;2023-10-31T03:36:15;12.40;86.37
68701;DHT22;55682;51.114;5.882;2023-10-31T03:38:41;12.34;86.76
68701;DHT22;55682;51.114;5.882;2023-10-31T03:41:07;12.38;86.48
68701;DHT22;55682;51.114;5.882;2023-10-31T03:43:33;12.31;86.80
68701;DHT22;55682;51.114;5.882;2023-10-31T03:46:00;12.43;86.07
68701;DHT22;55682;51.114;5.882;2023-10-31T03:48:26;12.35;86.65
68701;DHT22;55682;51.114;5.882;2023-10-31T03:50:52;12.41;86.37
68701;DHT22;55682;51.114;5.882;2023-10-31T03:53:18;12.45;86.24
68701;DHT22;55682;51.114;5.882;2023-10-31T03:55:44;12.44;86.08
68701;DHT22;55682;51.114;5.882;2023-10-31T03:58:10;12.47;86.03
68701;DHT22;55682;51.114;5.882;2023-10-31T04:00:36;12.44;86.06
68701;DHT22;55682;51.114;5.882;2023-10-31T04:03:04;12.43;85.84
68701;DHT22;55682;51.114;5.882;2023-10-31T04:05:29;12.44;85.72
68701;DHT22;55682;51.114;5.882;2023-10-31T04:07:55;12.42;85.80
68701;DHT22;55682;51.114;5.882;2023-10-31T04:10:21;12.41;85.94
68701;DHT22;55682;51.114;5.882;2023-10-31T04:12:46;12.41;86.09
68701;DHT22;55682;51.114;5.882;2023-10-31T04:15:12;12.45;85.82
68701;DHT22;55682;51.114;5.882;2023-10-31T04:17:38;12.53;85.15
68701;DHT22;55682;51.114;5.882;2023-10-31T04:20:04;12.47;85.34
68701;DHT22;55682;51.114;5.882;2023-10-31T04:22:30;12.48;85.26
68701;DHT22;55682;51.114;5.882;2023-10-31T04:24:56;12.50;84.94
68701;DHT22;55682;51.114;5.882;2023-10-31T04:27:22;12.52;84.92
68701;DHT22;55682;51.114;5.882;2023-10-31T04:29:47;12.51;84.81
68701;DHT22;55682;51.114;5.882;2023-10-31T04:32:14;12.60;84.37
68701;DHT22;55682;51.114;5.882;2023-10-31T04:34:39;12.58;84.50
68701;DHT22;55682;51.114;5.882;2023-10-31T04:37:05;12.49;84.77
68701;DHT22;55682;51.114;5.882;2023-10-31T04:39:31;12.46;84.90
68701;DHT22;55682;51.114;5.882;2023-10-31T04:41:57;12.48;84.97
68701;DHT22;55682;51.114;5.882;2023-10-31T04:44:22;12.48;84.97
68701;DHT22;55682;51.114;5.882;2023-10-31T04:46:48;12.48;85.03
68701;DHT22;55682;51.114;5.882;2023-10-31T04:49:14;12.51;84.78
68701;DHT22;55682;51.114;5.882;2023-10-31T04:51:41;12.50;84.61
68701;DHT22;55682;51.114;5.882;2023-10-31T04:54:07;12.49;84.78
68701;DHT22;55682;51.114;5.882;2023-10-31T04:56:33;12.46;84.85
68701;DHT22;55682;51.114;5.882;2023-10-31T04:58:58;12.48;85.17
68701;DHT22;55682;51.114;5.882;2023-10-31T05:01:24;12.42;85.21
68701;DHT22;55682;51.114;5.882;2023-10-31T05:03:50;12.45;84.95
68701;DHT22;55682;51.114;5.882;2023-10-31T05:06:20;12.34;84.97
68701;DHT22;55682;51.114;5.882;2023-10-31T05:08:46;12.27;85.52
68701;DHT22;55682;51.114;5.882;2023-10-31T05:11:12;12.27;85.64
68701;DHT22;55682;51.114;5.882;2023-10-31T05:13:40;12.26;85.61
68701;DHT22;55682;51.114;5.882;2023-10-31T05:16:06;12.23;85.74
68701;DHT22;55682;51.114;5.882;2023-10-31T05:18:32;12.21;85.52
68701;DHT22;55682;51.114;5.882;2023-10-31T05:20:58;12.19;85.57
68701;DHT22;55682;51.114;5.882;2023-10-31T05:23:23;12.25;85.52
68701;DHT22;55682;51.114;5.882;2023-10-31T05:25:49;12.21;85.43
68701;DHT22;55682;51.114;5.882;2023-10-31T05:28:14;12.30;84.52
68701;DHT22;55682;51.114;5.882;2023-10-31T05:30:40;12.13;85.16
68701;DHT22;55682;51.114;5.882;2023-10-31T05:33:06;12.05;85.61
68701;DHT22;55682;51.114;5.882;2023-10-31T05:35:33;12.07;85.65
68701;DHT22;55682;51.114;5.882;2023-10-31T05:37:59;12.08;85.46
68701;DHT22;55682;51.114;5.882;2023-10-31T05:40:24;12.16;85.09
68701;DHT22;55682;51.114;5.882;2023-10-31T05:42:51;12.19;85.35
68701;DHT22;55682;51.114;5.882;2023-10-31T05:45:17;12.25;84.94
68701;DHT22;55682;51.114;5.882;2023-10-31T05:47:43;12.30;84.76
68701;DHT22;55682;51.114;5.882;2023-10-31T05:50:08;12.27;84.66
68701;DHT22;55682;51.114;5.882;2023-10-31T05:52:34;12.26;84.81
68701;DHT22;55682;51.114;5.882;2023-10-31T05:55:00;12.25;84.89
68701;DHT22;55682;51.114;5.882;2023-10-31T05:57:25;12.26;84.89
68701;DHT22;55682;51.114;5.882;2023-10-31T05:59:51;12.29;84.55
68701;DHT22;55682;51.114;5.882;2023-10-31T06:02:17;12.31;84.45
68701;DHT22;55682;51.114;5.882;2023-10-31T06:04:42;12.29;84.38
68701;DHT22;55682;51.114;5.882;2023-10-31T06:07:08;12.32;84.12
68701;DHT22;55682;51.114;5.882;2023-10-31T06:09:35;12.35;83.82
68701;DHT22;55682;51.114;5.882;2023-10-31T06:12:01;12.33;83.92
68701;DHT22;55682;51.114;5.882;2023-10-31T06:14:26;12.31;83.82
68701;DHT22;55682;51.114;5.882;2023-10-31T06:16:52;12.33;83.60
68701;DHT22;55682;51.114;5.882;2023-10-31T06:19:19;12.31;83.86
68701;DHT22;55682;51.114;5.882;2023-10-31T06:21:44;12.32;83.99
68701;DHT22;55682;51.114;5.882;2023-10-31T06:24:10;12.28;84.21
68701;DHT22;55682;51.114;5.882;2023-10-31T06:26:36;12.28;84.10
68701;DHT22;55682;51.114;5.882;2023-10-31T06:29:01;12.29;83.94
68701;DHT22;55682;51.114;5.882;2023-10-31T06:31:27;12.29;83.92
68701;DHT22;55682;51.114;5.882;2023-10-31T06:33:53;12.26;83.99
68701;DHT22;55682;51.114;5.882;2023-10-31T06:36:18;12.23;84.39
68701;DHT22;55682;51.114;5.882;2023-10-31T06:38:44;12.25;84.03
68701;DHT22;55682;51.114;5.882;2023-10-31T06:41:10;12.22;84.00
68701;DHT22;55682;51.114;5.882;2023-10-31T06:43:35;12.22;84.21
68701;DHT22;55682;51.114;5.882;2023-10-31T06:46:01;12.25;84.00
68701;DHT22;55682;51.114;5.882;2023-10-31T06:48:29;12.32;83.66
68701;DHT22;55682;51.114;5.882;2023-10-31T06:50:55;12.30;83.68
68701;DHT22;55682;51.114;5.882;2023-10-31T06:53:21;12.33;83.52
68701;DHT22;55682;51.114;5.882;2023-10-31T06:55:46;12.32;83.65
68701;DHT22;55682;51.114;5.882;2023-10-31T06:58:12;12.33;83.76
68701;DHT22;55682;51.114;5.882;2023-10-31T07:00:38;12.41;83.26
68701;DHT22;55682;51.114;5.882;2023-10-31T07:03:04;12.37;83.26
68701;DHT22;55682;51.114;5.882;2023-10-31T07:05:37;12.42;83.21
68701;DHT22;55682;51.114;5.882;2023-10-31T07:08:04;12.47;82.58
68701;DHT22;55682;51.114;5.882;2023-10-31T07:10:30;12.38;82.79
68701;DHT22;55682;51.114;5.882;2023-10-31T07:12:56;12.38;82.85
68701;DHT22;55682;51.114;5.882;2023-10-31T07:15:27;12.37;82.48
68701;DHT22;55682;51.114;5.882;2023-10-31T07:17:53;12.35;82.69
68701;DHT22;55682;51.114;5.882;2023-10-31T07:20:18;12.34;83.07
68701;DHT22;55682;51.114;5.882;2023-10-31T07:22:44;12.36;82.87
68701;DHT22;55682;51.114;5.882;2023-10-31T07:25:10;12.42;82.58
68701;DHT22;55682;51.114;5.882;2023-10-31T07:27:36;12.51;81.89
68701;DHT22;55682;51.114;5.882;2023-10-31T07:30:03;12.40;82.79
68701;DHT22;55682;51.114;5.882;2023-10-31T07:32:29;12.44;82.79
68701;DHT22;55682;51.114;5.882;2023-10-31T07:34:55;12.50;82.57
68701;DHT22;55682;51.114;5.882;2023-10-31T07:37:20;12.52;82.28
68701;DHT22;55682;51.114;5.882;2023-10-31T07:39:46;12.60;81.65
68701;DHT22;55682;51.114;5.882;2023-10-31T07:42:12;12.55;82.40
68701;DHT22;55682;51.114;5.882;2023-10-31T07:44:37;12.57;82.38
68701;DHT22;55682;51.114;5.882;2023-10-31T07:47:03;12.67;81.80
68701;DHT22;55682;51.114;5.882;2023-10-31T07:49:29;12.72;81.19
68701;DHT22;55682;51.114;5.882;2023-10-31T07:51:54;12.77;81.12
68701;DHT22;55682;51.114;5.882;2023-10-31T07:54:20;12.82;81.19
68701;DHT22;55682;51.114;5.882;2023-10-31T07:56:45;12.91;80.92
68701;DHT22;55682;51.114;5.882;2023-10-31T07:59:11;13.09;80.52
68701;DHT22;55682;51.114;5.882;2023-10-31T08:01:37;13.22;80.27
68701;DHT22;55682;51.114;5.882;2023-10-31T08:04:03;13.40;79.40
68701;DHT22;55682;51.114;5.882;2023-10-31T08:06:28;13.44;79.46
68701;DHT22;55682;51.114;5.882;2023-10-31T08:08:55;13.76;80.20
68701;DHT22;55682;51.114;5.882;2023-10-31T08:11:20;14.70;81.55
68701;DHT22;55682;51.114;5.882;2023-10-31T08:13:46;15.76;76.12
68701;DHT22;55682;51.114;5.882;2023-10-31T08:16:19;16.69;70.61
68701;DHT22;55682;51.114;5.882;2023-10-31T08:18:46;17.26;66.21
68701;DHT22;55682;51.114;5.882;2023-10-31T08:21:12;17.61;66.20
68701;DHT22;55682;51.114;5.882;2023-10-31T08:23:39;17.96;62.96
68701;DHT22;55682;51.114;5.882;2023-10-31T08:26:05;18.08;61.44
68701;DHT22;55682;51.114;5.882;2023-10-31T08:28:30;18.28;63.23
68701;DHT22;55682;51.114;5.882;2023-10-31T08:30:57;18.71;60.96
68701;DHT22;55682;51.114;5.882;2023-10-31T08:33:23;18.72;59.07
68701;DHT22;55682;51.114;5.882;2023-10-31T08:35:49;18.56;58.68
68701;DHT22;55682;51.114;5.882;2023-10-31T08:38:15;18.22;59.41
68701;DHT22;55682;51.114;5.882;2023-10-31T08:40:41;17.79;60.67
68701;DHT22;55682;51.114;5.882;2023-10-31T08:43:07;17.65;61.89
68701;DHT22;55682;51.114;5.882;2023-10-31T08:45:33;17.55;61.25
68701;DHT22;55682;51.114;5.882;2023-10-31T08:48:00;17.15;62.22
68701;DHT22;55682;51.114;5.882;2023-10-31T08:50:26;16.80;63.02
68701;DHT22;55682;51.114;5.882;2023-10-31T08:52:51;16.52;64.59
68701;DHT22;55682;51.114;5.882;2023-10-31T08:55:17;16.65;64.12
68701;DHT22;55682;51.114;5.882;2023-10-31T08:57:43;16.54;64.49
68701;DHT22;55682;51.114;5.882;2023-10-31T09:00:09;16.34;65.64
68701;DHT22;55682;51.114;5.882;2023-10-31T09:02:35;17.10;66.62
68701;DHT22;55682;51.114;5.882;2023-10-31T09:05:00;18.09;60.86
68701;DHT22;55682;51.114;5.882;2023-10-31T09:07:26;18.32;61.58
68701;DHT22;55682;51.114;5.882;2023-10-31T09:09:52;18.89;59.84
68701;DHT22;55682;51.114;5.882;2023-10-31T09:12:18;19.03;58.06
68701;DHT22;55682;51.114;5.882;2023-10-31T09:14:44;19.26;57.34
68701;DHT22;55682;51.114;5.882;2023-10-31T09:17:09;19.00;57.16
68701;DHT22;55682;51.114;5.882;2023-10-31T09:19:35;18.47;57.06
68701;DHT22;55682;51.114;5.882;2023-10-31T09:22:01;17.75;59.28
68701;DHT22;55682;51.114;5.882;2023-10-31T09:24:26;17.17;61.09
68701;DHT22;55682;51.114;5.882;2023-10-31T09:26:52;16.80;63.66
68701;DHT22;55682;51.114;5.882;2023-10-31T09:29:17;17.10;64.74
68701;DHT22;55682;51.114;5.882;2023-10-31T09:31:43;17.53;61.98
68701;DHT22;55682;51.114;5.882;2023-10-31T09:34:08;17.28;61.50
68701;DHT22;55682;51.114;5.882;2023-10-31T09:36:35;16.79;62.47
68701;DHT22;55682;51.114;5.882;2023-10-31T09:39:00;16.62;64.83
68701;DHT22;55682;51.114;5.882;2023-10-31T09:41:26;16.70;64.50
68701;DHT22;55682;51.114;5.882;2023-10-31T09:43:53;16.49;64.40
68701;DHT22;55682;51.114;5.882;2023-10-31T09:46:19;16.24;65.59
68701;DHT22;55682;51.114;5.882;2023-10-31T09:48:45;16.02;66.07
68701;DHT22;55682;51.114;5.882;2023-10-31T09:51:10;15.82;66.84
68701;DHT22;55682;51.114;5.882;2023-10-31T09:53:41;15.71;67.74
68701;DHT22;55682;51.114;5.882;2023-10-31T09:56:07;15.67;68.42
68701;DHT22;55682;51.114;5.882;2023-10-31T09:58:34;15.83;67.87
68701;DHT22;55682;51.114;5.882;2023-10-31T10:01:00;16.20;68.06
68701;DHT22;55682;51.114;5.882;2023-10-31T10:03:27;16.40;65.69
68701;DHT22;55682;51.114;5.882;2023-10-31T10:05:53;16.40;65.48
68701;DHT22;55682;51.114;5.882;2023-10-31T10:08:22;16.25;65.38
68701;DHT22;55682;51.114;5.882;2023-10-31T10:10:49;16.07;66.45
68701;DHT22;55682;51.114;5.882;2023-10-31T10:13:20;15.96;66.98
68701;DHT22;55682;51.114;5.882;2023-10-31T10:15:47;15.88;67.65
68701;DHT22;55682;51.114;5.882;2023-10-31T10:18:31;16.05;67.88
68701;DHT22;55682;51.114;5.882;2023-10-31T10:20:59;16.46;66.93
68701;DHT22;55682;51.114;5.882;2023-10-31T10:23:26;16.90;65.94
68701;DHT22;55682;51.114;5.882;2023-10-31T10:25:54;17.33;63.09
68701;DHT22;55682;51.114;5.882;2023-10-31T10:28:20;17.35;61.90
68701;DHT22;55682;51.114;5.882;2023-10-31T10:30:46;17.36;62.50
68701;DHT22;55682;51.114;5.882;2023-10-31T10:33:16;17.43;60.95
68701;DHT22;55682;51.114;5.882;2023-10-31T10:35:42;17.09;62.84
68701;DHT22;55682;51.114;5.882;2023-10-31T10:38:11;16.98;62.39
68701;DHT22;55682;51.114;5.882;2023-10-31T10:40:42;16.76;63.68
68701;DHT22;55682;51.114;5.882;2023-10-31T10:43:17;16.66;64.76
68701;DHT22;55682;51.114;5.882;2023-10-31T10:45:45;16.69;64.49
68701;DHT22;55682;51.114;5.882;2023-10-31T10:48:15;16.73;63.79
68701;DHT22;55682;51.114;5.882;2023-10-31T10:50:45;16.59;64.70
68701;DHT22;55682;51.114;5.882;2023-10-31T10:53:25;16.61;64.55
68701;DHT22;55682;51.114;5.882;2023-10-31T10:55:57;16.62;64.34
68701;DHT22;55682;51.114;5.882;2023-10-31T11:01:01;16.60;64.36
68701;DHT22;55682;51.114;5.882;2023-10-31T11:03:29;16.70;64.91
68701;DHT22;55682;51.114;5.882;2023-10-31T11:05:55;16.87;64.55
68701;DHT22;55682;51.114;5.882;2023-10-31T11:08:23;17.08;63.57
68701;DHT22;55682;51.114;5.882;2023-10-31T11:10:52;17.08;63.50
68701;DHT22;55682;51.114;5.882;2023-10-31T11:13:19;17.10;62.69
68701;DHT22;55682;51.114;5.882;2023-10-31T11:15:48;17.07;62.81
68701;DHT22;55682;51.114;5.882;2023-10-31T11:18:17;17.05;63.02
68701;DHT22;55682;51.114;5.882;2023-10-31T11:20:43;17.04;63.74
68701;DHT22;55682;51.114;5.882;2023-10-31T11:23:09;17.06;62.74
68701;DHT22;55682;51.114;5.882;2023-10-31T11:25:42;17.03;62.63
68701;DHT22;55682;51.114;5.882;2023-10-31T11:28:16;17.10;63.51
68701;DHT22;55682;51.114;5.882;2023-10-31T11:30:43;17.15;62.70
68701;DHT22;55682;51.114;5.882;2023-10-31T11:33:17;17.34;62.21
68701;DHT22;55682;51.114;5.882;2023-10-31T11:35:44;17.36;60.96
68701;DHT22;55682;51.114;5.882;2023-10-31T11:38:14;17.16;61.88
68701;DHT22;55682;51.114;5.882;2023-10-31T11:43:14;17.61;61.76
68701;DHT22;55682;51.114;5.882;2023-10-31T11:45:42;17.74;60.98
68701;DHT22;55682;51.114;5.882;2023-10-31T11:48:10;17.60;61.58
68701;DHT22;55682;51.114;5.882;2023-10-31T11:50:37;17.52;61.28
68701;DHT22;55682;51.114;5.882;2023-10-31T11:53:08;17.43;61.57
68701;DHT22;55682;51.114;5.882;2023-10-31T11:55:41;17.19;62.24
68701;DHT22;55682;51.114;5.882;2023-10-31T11:58:21;17.16;63.26
68701;DHT22;55682;51.114;5.882;2023-10-31T12:00:49;17.44;63.08
68701;DHT22;55682;51.114;5.882;2023-10-31T12:03:18;17.69;62.17
68701;DHT22;55682;51.114;5.882;2023-10-31T12:05:59;18.08;60.53
68701;DHT22;55682;51.114;5.882;2023-10-31T12:08:37;18.28;59.64
68701;DHT22;55682;51.114;5.882;2023-10-31T12:11:23;18.44;59.61
68701;DHT22;55682;51.114;5.882;2023-10-31T12:13:59;18.80;58.76
68701;DHT22;55682;51.114;5.882;2023-10-31T12:16:31;18.79;57.82
68701;DHT22;55682;51.114;5.882;2023-10-31T12:19:01;18.68;57.97
68701;DHT22;55682;51.114;5.882;2023-10-31T12:21:46;18.52;58.62
68701;DHT22;55682;51.114;5.882;2023-10-31T12:24:17;18.38;58.07
68701;DHT22;55682;51.114;5.882;2023-10-31T12:26:44;17.90;59.44
68701;DHT22;55682;51.114;5.882;2023-10-31T12:29:15;17.65;60.67
68701;DHT22;55682;51.114;5.882;2023-10-31T12:31:52;17.49;61.41
68701;DHT22;55682;51.114;5.882;2023-10-31T12:34:20;17.43;61.48
68701;DHT22;55682;51.114;5.882;2023-10-31T12:36:47;17.46;61.38
68701;DHT22;55682;51.114;5.882;2023-10-31T12:39:15;17.63;61.02
68701;DHT22;55682;51.114;5.882;2023-10-31T12:41:42;17.91;60.67
68701;DHT22;55682;51.114;5.882;2023-10-31T12:44:09;18.06;59.04
68701;DHT22;55682;51.114;5.882;2023-10-31T12:46:41;18.03;59.32
68701;DHT22;55682;51.114;5.882;2023-10-31T12:49:11;18.05;59.34
68701;DHT22;55682;51.114;5.882;2023-10-31T12:51:55;18.10;59.20
68701;DHT22;55682;51.114;5.882;2023-10-31T12:54:35;18.26;58.99
68701;DHT22;55682;51.114;5.882;2023-10-31T12:57:03;18.33;58.46
68701;DHT22;55682;51.114;5.882;2023-10-31T12:59:31;18.40;58.05
68701;DHT22;55682;51.114;5.882;2023-10-31T13:01:56;18.24;58.74
68701;DHT22;55682;51.114;5.882;2023-10-31T13:04:27;18.12;59.03
68701;DHT22;55682;51.114;5.882;2023-10-31T13:07:00;18.04;58.56
68701;DHT22;55682;51.114;5.882;2023-10-31T13:09:37;17.88;58.48
68701;DHT22;55682;51.114;5.882;2023-10-31T13:12:08;17.70;59.76
68701;DHT22;55682;51.114;5.882;2023-10-31T13:14:36;17.65;59.93
68701;DHT22;55682;51.114;5.882;2023-10-31T13:17:03;17.43;60.36
68701;DHT22;55682;51.114;5.882;2023-10-31T13:19:29;17.30;61.12
68701;DHT22;55682;51.114;5.882;2023-10-31T13:21:55;17.31;61.60
68701;DHT22;55682;51.114;5.882;2023-10-31T13:24:20;17.34;61.72
68701;DHT22;55682;51.114;5.882;2023-10-31T13:26:46;17.46;60.72
68701;DHT22;55682;51.114;5.882;2023-10-31T13:29:19;17.37;60.96
68701;DHT22;55682;51.114;5.882;2023-10-31T13:31:45;17.40;60.70
68701;DHT22;55682;51.114;5.882;2023-10-31T13:34:11;17.55;61.07
68701;DHT22;55682;51.114;5.882;2023-10-31T13:36:36;17.69;59.86
68701;DHT22;55682;51.114;5.882;2023-10-31T13:39:03;17.65;59.63
68701;DHT22;55682;51.114;5.882;2023-10-31T13:41:29;17.58;59.80
68701;DHT22;55682;51.114;5.882;2023-10-31T13:43:55;17.49;60.41
68701;DHT22;55682;51.114;5.882;2023-10-31T13:46:20;17.55;59.84
68701;DHT22;55682;51.114;5.882;2023-10-31T13:48:46;17.38;60.75
68701;DHT22;55682;51.114;5.882;2023-10-31T13:51:12;17.32;61.05
68701;DHT22;55682;51.114;5.882;2023-10-31T13:53:37;17.34;61.57
68701;DHT22;55682;51.114;5.882;2023-10-31T13:56:03;17.34;61.67
68701;DHT22;55682;51.114;5.882;2023-10-31T13:58:29;17.34;61.52
68701;DHT22;55682;51.114;5.882;2023-10-31T14:00:54;17.31;61.69
68701;DHT22;55682;51.114;5.882;2023-10-31T14:03:20;17.22;62.24
68701;DHT22;55682;51.114;5.882;2023-10-31T14:05:46;17.24;62.63
68701;DHT22;55682;51.114;5.882;2023-10-31T14:08:12;17.15;62.90
68701;DHT22;55682;51.114;5.882;2023-10-31T14:10:38;16.96;63.15
68701;DHT22;55682;51.114;5.882;2023-10-31T14:13:05;16.82;63.69
68701;DHT22;55682;51.114;5.882;2023-10-31T14:15:31;16.85;63.66
68701;DHT22;55682;51.114;5.882;2023-10-31T14:17:57;16.71;64.11
68701;DHT22;55682;51.114;5.882;2023-10-31T14:20:23;16.57;64.72
68701;DHT22;55682;51.114;5.882;2023-10-31T14:22:49;16.51;65.10
68701;DHT22;55682;51.114;5.882;2023-10-31T14:25:15;16.40;65.44
68701;DHT22;55682;51.114;5.882;2023-10-31T14:27:41;16.31;66.02
68701;DHT22;55682;51.114;5.882;2023-10-31T14:30:08;16.27;66.64
68701;DHT22;55682;51.114;5.882;2023-10-31T14:32:34;16.10;68.96
68701;DHT22;55682;51.114;5.882;2023-10-31T14:35:00;15.96;70.59
68701;DHT22;55682;51.114;5.882;2023-10-31T14:37:25;15.83;70.89
68701;DHT22;55682;51.114;5.882;2023-10-31T14:39:51;15.76;71.97
68701;DHT22;55682;51.114;5.882;2023-10-31T14:42:17;15.55;73.12
68701;DHT22;55682;51.114;5.882;2023-10-31T14:44:42;15.43;73.35
68701;DHT22;55682;51.114;5.882;2023-10-31T14:47:08;15.41;73.86
68701;DHT22;55682;51.114;5.882;2023-10-31T14:49:35;15.32;74.47
68701;DHT22;55682;51.114;5.882;2023-10-31T14:52:00;15.27;74.80
68701;DHT22;55682;51.114;5.882;2023-10-31T14:54:26;15.17;75.57
68701;DHT22;55682;51.114;5.882;2023-10-31T14:56:52;15.25;75.96
68701;DHT22;55682;51.114;5.882;2023-10-31T14:59:18;15.25;75.89
68701;DHT22;55682;51.114;5.882;2023-10-31T15:01:44;15.22;76.16
68701;DHT22;55682;51.114;5.882;2023-10-31T15:04:09;15.23;75.91
68701;DHT22;55682;51.114;5.882;2023-10-31T15:06:36;15.11;76.42
68701;DHT22;55682;51.114;5.882;2023-10-31T15:09:02;15.02;76.49
68701;DHT22;55682;51.114;5.882;2023-10-31T15:11:28;14.95;77.17
68701;DHT22;55682;51.114;5.882;2023-10-31T15:13:54;14.96;77.19
68701;DHT22;55682;51.114;5.882;2023-10-31T15:16:19;14.86;77.46
68701;DHT22;55682;51.114;5.882;2023-10-31T15:18:45;14.80;78.04
68701;DHT22;55682;51.114;5.882;2023-10-31T15:21:11;14.75;78.37
68701;DHT22;55682;51.114;5.882;2023-10-31T15:23:37;14.72;78.77
68701;DHT22;55682;51.114;5.882;2023-10-31T15:26:03;14.77;79.07
68701;DHT22;55682;51.114;5.882;2023-10-31T15:28:29;14.67;79.17
68701;DHT22;55682;51.114;5.882;2023-10-31T15:30:55;14.80;78.96
68701;DHT22;55682;51.114;5.882;2023-10-31T15:33:21;14.80;78.85